Esler Regional Airport
KESF : now visible

Airfield :











YOU CAN JOIN US ON...

 
LOGIN :

Register | Disclaimer

   EN    FR    IT 

 









Legend :    VFR   Marginal VFR   IFR   Intensive IFR   Very Intensive IFR
Visi :
Ceiling :
>= 8 km
>= 3000ft
5 to 8 km
1000 to 3000 ft
1500m to 5 km
500 to 1000 ft
800 to 1500m
200 to 500 ft
< 800m
< 200 ft
Symbols :   Thunderstorms  Fog  Heavy snow  Heavy precipitations  Wind > 20 kt







- Airport Elevation : 112 ft


KESF - Esler Regional

CURRENT METAR :
  • 212053Z AUTO 10007KT 10SM FEW050 SCT070 SCT090 32/21 A3006 RMK AO2 SLP177 T03220206 57024

EXPIRED METARs :
  • 211953Z AUTO 16007KT 10SM SCT048 SCT060 31/21 A3008 RMK AO2 SLP185 T03110206
  • 211853Z AUTO 18006KT 10SM FEW046 FEW070 32/21 A3011 RMK AO2 SLP194 T03220211

TAF N/A
No reported NOTAMs for that airfield.



MET'MAP, your aeronautical weather chart ! - Copyright ORBIFLY December 2007 - Disclaimer

ORBIFLY MET'MAP TEAM :

Programming & Development : Alexandra Zaïnal
Concept & Development : Baudouin d'Aumeries
Co-Development & Prog : Marc-Olivier Méhu
Technical & hardware support : Manuel Goepfert

Contact : metmap@orbifly.com




SOURCES & CREDITS :

   NOAA       Earth
Advisory